sensor_id;sensor_type;location;lat;lon;timestamp;P1;durP1;ratioP1;P2;durP2;ratioP2
49051;SDS011;34866;48.670;18.260;2023-01-13T00:01:09;39.85;;;16.13;;
49051;SDS011;34866;48.670;18.260;2023-01-13T00:03:36;30.98;;;15.60;;
49051;SDS011;34866;48.670;18.260;2023-01-13T00:06:02;33.72;;;16.40;;
49051;SDS011;34866;48.670;18.260;2023-01-13T00:08:28;29.42;;;13.73;;
49051;SDS011;34866;48.670;18.260;2023-01-13T00:10:54;37.35;;;16.95;;
49051;SDS011;34866;48.670;18.260;2023-01-13T00:13:20;39.92;;;17.15;;
49051;SDS011;34866;48.670;18.260;2023-01-13T00:16:01;36.03;;;15.57;;
49051;SDS011;34866;48.670;18.260;2023-01-13T00:18:32;46.22;;;15.90;;
49051;SDS011;34866;48.670;18.260;2023-01-13T00:23:25;28.25;;;13.85;;
49051;SDS011;34866;48.670;18.260;2023-01-13T00:25:54;43.17;;;17.27;;
49051;SDS011;34866;48.670;18.260;2023-01-13T00:28:20;32.67;;;16.35;;
49051;SDS011;34866;48.670;18.260;2023-01-13T00:30:46;42.97;;;18.73;;
49051;SDS011;34866;48.670;18.260;2023-01-13T00:33:11;47.22;;;20.13;;
49051;SDS011;34866;48.670;18.260;2023-01-13T00:35:37;48.70;;;19.42;;
49051;SDS011;34866;48.670;18.260;2023-01-13T00:38:03;40.22;;;19.17;;
49051;SDS011;34866;48.670;18.260;2023-01-13T00:40:28;56.10;;;19.40;;
49051;SDS011;34866;48.670;18.260;2023-01-13T00:42:54;38.22;;;17.15;;
49051;SDS011;34866;48.670;18.260;2023-01-13T00:45:38;41.90;;;19.40;;
49051;SDS011;34866;48.670;18.260;2023-01-13T00:48:04;45.83;;;19.90;;
49051;SDS011;34866;48.670;18.260;2023-01-13T00:50:29;54.70;;;22.08;;
49051;SDS011;34866;48.670;18.260;2023-01-13T00:52:57;51.38;;;24.00;;
49051;SDS011;34866;48.670;18.260;2023-01-13T00:55:24;82.72;;;27.38;;
49051;SDS011;34866;48.670;18.260;2023-01-13T00:57:50;50.78;;;22.27;;
49051;SDS011;34866;48.670;18.260;2023-01-13T01:00:16;81.32;;;29.90;;
49051;SDS011;34866;48.670;18.260;2023-01-13T01:02:43;64.43;;;26.98;;
49051;SDS011;34866;48.670;18.260;2023-01-13T01:05:09;54.78;;;24.77;;
49051;SDS011;34866;48.670;18.260;2023-01-13T01:07:34;54.45;;;23.17;;
49051;SDS011;34866;48.670;18.260;2023-01-13T01:10:00;52.58;;;22.80;;
49051;SDS011;34866;48.670;18.260;2023-01-13T01:12:26;52.22;;;22.88;;
49051;SDS011;34866;48.670;18.260;2023-01-13T01:14:52;50.28;;;21.90;;
49051;SDS011;34866;48.670;18.260;2023-01-13T01:17:17;43.28;;;20.25;;
49051;SDS011;34866;48.670;18.260;2023-01-13T01:19:43;40.40;;;19.77;;
49051;SDS011;34866;48.670;18.260;2023-01-13T01:22:09;37.97;;;17.65;;
49051;SDS011;34866;48.670;18.260;2023-01-13T01:24:34;37.15;;;17.08;;
49051;SDS011;34866;48.670;18.260;2023-01-13T01:27:00;33.38;;;15.95;;
49051;SDS011;34866;48.670;18.260;2023-01-13T01:29:26;37.35;;;17.00;;
49051;SDS011;34866;48.670;18.260;2023-01-13T01:31:51;37.60;;;16.70;;
49051;SDS011;34866;48.670;18.260;2023-01-13T01:34:17;35.08;;;15.38;;
49051;SDS011;34866;48.670;18.260;2023-01-13T01:36:43;33.97;;;15.73;;
49051;SDS011;34866;48.670;18.260;2023-01-13T01:39:08;31.30;;;15.35;;
49051;SDS011;34866;48.670;18.260;2023-01-13T01:41:34;36.30;;;16.10;;
49051;SDS011;34866;48.670;18.260;2023-01-13T01:44:48;34.33;;;16.77;;
49051;SDS011;34866;48.670;18.260;2023-01-13T01:47:05;33.70;;;15.40;;
49051;SDS011;34866;48.670;18.260;2023-01-13T01:49:32;32.00;;;15.50;;
49051;SDS011;34866;48.670;18.260;2023-01-13T01:57:03;35.95;;;15.20;;
49051;SDS011;34866;48.670;18.260;2023-01-13T01:59:32;32.70;;;15.98;;
49051;SDS011;34866;48.670;18.260;2023-01-13T02:02:00;37.10;;;16.25;;
49051;SDS011;34866;48.670;18.260;2023-01-13T02:04:33;33.45;;;15.48;;
49051;SDS011;34866;48.670;18.260;2023-01-13T02:07:04;40.90;;;16.80;;
49051;SDS011;34866;48.670;18.260;2023-01-13T02:09:30;34.17;;;16.23;;
49051;SDS011;34866;48.670;18.260;2023-01-13T02:11:57;41.40;;;18.08;;
49051;SDS011;34866;48.670;18.260;2023-01-13T02:14:41;36.28;;;15.95;;
49051;SDS011;34866;48.670;18.260;2023-01-13T02:34:10;30.42;;;12.45;;
49051;SDS011;34866;48.670;18.260;2023-01-13T02:36:52;27.85;;;15.35;;
49051;SDS011;34866;48.670;18.260;2023-01-13T02:41:51;30.40;;;13.50;;
49051;SDS011;34866;48.670;18.260;2023-01-13T02:44:46;27.00;;;13.45;;
49051;SDS011;34866;48.670;18.260;2023-01-13T02:47:21;28.38;;;13.15;;
49051;SDS011;34866;48.670;18.260;2023-01-13T02:49:54;31.70;;;14.57;;
49051;SDS011;34866;48.670;18.260;2023-01-13T02:52:33;27.67;;;15.02;;
49051;SDS011;34866;48.670;18.260;2023-01-13T02:55:19;29.85;;;14.18;;
49051;SDS011;34866;48.670;18.260;2023-01-13T02:57:50;35.40;;;13.53;;
49051;SDS011;34866;48.670;18.260;2023-01-13T03:00:18;28.55;;;13.48;;
49051;SDS011;34866;48.670;18.260;2023-01-13T03:02:46;27.27;;;12.90;;
49051;SDS011;34866;48.670;18.260;2023-01-13T03:05:13;39.97;;;15.52;;
49051;SDS011;34866;48.670;18.260;2023-01-13T03:07:45;28.13;;;14.48;;
49051;SDS011;34866;48.670;18.260;2023-01-13T03:15:47;31.40;;;13.90;;
49051;SDS011;34866;48.670;18.260;2023-01-13T03:26:32;30.13;;;12.18;;
49051;SDS011;34866;48.670;18.260;2023-01-13T03:31:58;24.38;;;12.45;;
49051;SDS011;34866;48.670;18.260;2023-01-13T03:34:50;25.10;;;12.38;;
49051;SDS011;34866;48.670;18.260;2023-01-13T03:37:38;28.48;;;11.18;;
49051;SDS011;34866;48.670;18.260;2023-01-13T03:40:16;29.02;;;12.82;;
49051;SDS011;34866;48.670;18.260;2023-01-13T03:42:47;30.73;;;13.27;;
49051;SDS011;34866;48.670;18.260;2023-01-13T03:45:37;26.67;;;12.45;;
49051;SDS011;34866;48.670;18.260;2023-01-13T03:48:06;21.17;;;10.65;;
49051;SDS011;34866;48.670;18.260;2023-01-13T03:50:46;24.52;;;12.55;;
49051;SDS011;34866;48.670;18.260;2023-01-13T03:53:27;21.65;;;10.23;;
49051;SDS011;34866;48.670;18.260;2023-01-13T03:56:01;24.88;;;10.90;;
49051;SDS011;34866;48.670;18.260;2023-01-13T03:59:05;25.50;;;10.88;;
49051;SDS011;34866;48.670;18.260;2023-01-13T04:01:44;21.50;;;11.07;;
49051;SDS011;34866;48.670;18.260;2023-01-13T04:04:32;24.42;;;10.18;;
49051;SDS011;34866;48.670;18.260;2023-01-13T04:09:58;20.13;;;10.40;;
49051;SDS011;34866;48.670;18.260;2023-01-13T04:15:16;30.35;;;12.82;;
49051;SDS011;34866;48.670;18.260;2023-01-13T04:17:45;22.27;;;10.65;;
49051;SDS011;34866;48.670;18.260;2023-01-13T04:20:11;19.65;;;9.98;;
49051;SDS011;34866;48.670;18.260;2023-01-13T04:22:36;28.08;;;11.35;;
49051;SDS011;34866;48.670;18.260;2023-01-13T04:25:02;22.08;;;9.75;;
49051;SDS011;34866;48.670;18.260;2023-01-13T04:27:28;25.00;;;9.95;;
49051;SDS011;34866;48.670;18.260;2023-01-13T04:29:54;20.70;;;10.35;;
49051;SDS011;34866;48.670;18.260;2023-01-13T04:32:20;22.02;;;12.05;;
49051;SDS011;34866;48.670;18.260;2023-01-13T04:34:45;22.27;;;9.95;;
49051;SDS011;34866;48.670;18.260;2023-01-13T04:37:11;21.75;;;9.73;;
49051;SDS011;34866;48.670;18.260;2023-01-13T04:39:38;19.65;;;9.13;;
49051;SDS011;34866;48.670;18.260;2023-01-13T04:42:03;21.05;;;9.73;;
49051;SDS011;34866;48.670;18.260;2023-01-13T04:44:29;24.13;;;10.90;;
49051;SDS011;34866;48.670;18.260;2023-01-13T04:46:59;21.77;;;11.45;;
49051;SDS011;34866;48.670;18.260;2023-01-13T04:49:25;25.20;;;11.43;;
49051;SDS011;34866;48.670;18.260;2023-01-13T04:51:51;26.70;;;11.82;;
49051;SDS011;34866;48.670;18.260;2023-01-13T04:54:16;27.40;;;10.63;;
49051;SDS011;34866;48.670;18.260;2023-01-13T04:56:42;30.90;;;11.32;;
49051;SDS011;34866;48.670;18.260;2023-01-13T04:59:09;19.70;;;9.13;;
49051;SDS011;34866;48.670;18.260;2023-01-13T05:01:35;42.20;;;9.93;;
49051;SDS011;34866;48.670;18.260;2023-01-13T05:04:00;24.48;;;11.05;;
49051;SDS011;34866;48.670;18.260;2023-01-13T05:06:27;22.75;;;10.00;;
49051;SDS011;34866;48.670;18.260;2023-01-13T05:08:53;19.35;;;9.80;;
49051;SDS011;34866;48.670;18.260;2023-01-13T05:11:19;24.83;;;10.18;;
49051;SDS011;34866;48.670;18.260;2023-01-13T05:14:17;23.50;;;10.95;;
49051;SDS011;34866;48.670;18.260;2023-01-13T05:17:01;20.05;;;9.73;;
49051;SDS011;34866;48.670;18.260;2023-01-13T05:19:30;19.30;;;8.95;;
49051;SDS011;34866;48.670;18.260;2023-01-13T05:21:58;36.28;;;12.18;;
49051;SDS011;34866;48.670;18.260;2023-01-13T05:27:27;20.35;;;10.02;;
49051;SDS011;34866;48.670;18.260;2023-01-13T05:29:54;26.90;;;10.18;;
49051;SDS011;34866;48.670;18.260;2023-01-13T05:32:20;21.90;;;9.95;;
49051;SDS011;34866;48.670;18.260;2023-01-13T05:34:46;21.67;;;10.07;;
49051;SDS011;34866;48.670;18.260;2023-01-13T05:37:13;20.15;;;9.68;;
49051;SDS011;34866;48.670;18.260;2023-01-13T05:39:39;24.73;;;9.73;;
49051;SDS011;34866;48.670;18.260;2023-01-13T05:42:24;19.70;;;9.98;;
49051;SDS011;34866;48.670;18.260;2023-01-13T05:45:09;24.77;;;9.18;;
49051;SDS011;34866;48.670;18.260;2023-01-13T05:47:35;23.20;;;9.85;;
49051;SDS011;34866;48.670;18.260;2023-01-13T05:50:08;20.92;;;10.15;;
49051;SDS011;34866;48.670;18.260;2023-01-13T05:52:35;23.55;;;11.80;;
49051;SDS011;34866;48.670;18.260;2023-01-13T05:55:01;26.65;;;12.45;;
49051;SDS011;34866;48.670;18.260;2023-01-13T05:57:27;20.08;;;11.52;;
49051;SDS011;34866;48.670;18.260;2023-01-13T05:59:53;23.15;;;10.32;;
49051;SDS011;34866;48.670;18.260;2023-01-13T06:02:19;25.48;;;10.88;;
49051;SDS011;34866;48.670;18.260;2023-01-13T06:04:44;19.75;;;10.02;;
49051;SDS011;34866;48.670;18.260;2023-01-13T06:07:10;21.40;;;9.10;;
49051;SDS011;34866;48.670;18.260;2023-01-13T06:09:36;27.83;;;11.10;;
49051;SDS011;34866;48.670;18.260;2023-01-13T06:12:02;22.40;;;10.50;;
49051;SDS011;34866;48.670;18.260;2023-01-13T06:14:28;19.58;;;10.20;;
49051;SDS011;34866;48.670;18.260;2023-01-13T06:17:14;26.80;;;11.23;;
49051;SDS011;34866;48.670;18.260;2023-01-13T06:19:40;28.48;;;11.50;;
49051;SDS011;34866;48.670;18.260;2023-01-13T06:22:08;22.00;;;9.68;;
49051;SDS011;34866;48.670;18.260;2023-01-13T06:24:40;19.25;;;10.02;;
49051;SDS011;34866;48.670;18.260;2023-01-13T06:27:07;24.05;;;10.98;;
49051;SDS011;34866;48.670;18.260;2023-01-13T06:29:33;22.73;;;10.73;;
49051;SDS011;34866;48.670;18.260;2023-01-13T06:32:03;22.00;;;11.70;;
49051;SDS011;34866;48.670;18.260;2023-01-13T06:34:31;20.77;;;10.30;;
49051;SDS011;34866;48.670;18.260;2023-01-13T06:36:59;29.60;;;12.63;;
49051;SDS011;34866;48.670;18.260;2023-01-13T06:39:25;28.13;;;13.07;;
49051;SDS011;34866;48.670;18.260;2023-01-13T06:41:54;19.00;;;10.90;;
49051;SDS011;34866;48.670;18.260;2023-01-13T06:44:39;24.02;;;11.10;;
49051;SDS011;34866;48.670;18.260;2023-01-13T06:47:05;28.33;;;12.40;;
49051;SDS011;34866;48.670;18.260;2023-01-13T06:49:31;18.13;;;9.73;;
49051;SDS011;34866;48.670;18.260;2023-01-13T06:51:57;22.88;;;11.43;;
49051;SDS011;34866;48.670;18.260;2023-01-13T06:54:23;21.30;;;9.20;;
49051;SDS011;34866;48.670;18.260;2023-01-13T06:56:48;22.98;;;9.77;;
49051;SDS011;34866;48.670;18.260;2023-01-13T06:59:14;20.98;;;10.20;;
49051;SDS011;34866;48.670;18.260;2023-01-13T07:01:40;24.73;;;11.70;;
49051;SDS011;34866;48.670;18.260;2023-01-13T07:04:05;20.10;;;9.00;;
49051;SDS011;34866;48.670;18.260;2023-01-13T07:06:31;19.05;;;8.73;;
49051;SDS011;34866;48.670;18.260;2023-01-13T07:08:57;16.40;;;8.25;;
49051;SDS011;34866;48.670;18.260;2023-01-13T07:11:23;18.48;;;8.63;;
49051;SDS011;34866;48.670;18.260;2023-01-13T07:13:49;21.90;;;9.30;;
49051;SDS011;34866;48.670;18.260;2023-01-13T07:16:39;15.95;;;8.25;;
49051;SDS011;34866;48.670;18.260;2023-01-13T07:19:08;17.73;;;9.68;;
49051;SDS011;34866;48.670;18.260;2023-01-13T07:21:34;31.08;;;12.45;;
49051;SDS011;34866;48.670;18.260;2023-01-13T07:23:59;28.20;;;13.98;;
49051;SDS011;34866;48.670;18.260;2023-01-13T07:26:25;29.80;;;13.65;;
49051;SDS011;34866;48.670;18.260;2023-01-13T07:28:51;36.92;;;15.25;;
49051;SDS011;34866;48.670;18.260;2023-01-13T07:31:17;26.25;;;14.57;;
49051;SDS011;34866;48.670;18.260;2023-01-13T07:33:45;29.38;;;15.43;;
49051;SDS011;34866;48.670;18.260;2023-01-13T07:36:11;25.67;;;12.27;;
49051;SDS011;34866;48.670;18.260;2023-01-13T07:38:37;27.52;;;13.35;;
49051;SDS011;34866;48.670;18.260;2023-01-13T07:41:04;35.22;;;14.40;;
49051;SDS011;34866;48.670;18.260;2023-01-13T07:43:49;25.83;;;12.45;;
49051;SDS011;34866;48.670;18.260;2023-01-13T07:46:15;25.05;;;12.95;;
49051;SDS011;34866;48.670;18.260;2023-01-13T07:48:42;26.48;;;12.73;;
49051;SDS011;34866;48.670;18.260;2023-01-13T07:51:09;28.00;;;14.13;;
49051;SDS011;34866;48.670;18.260;2023-01-13T07:53:35;23.48;;;10.57;;
49051;SDS011;34866;48.670;18.260;2023-01-13T07:56:02;27.33;;;12.48;;
49051;SDS011;34866;48.670;18.260;2023-01-13T07:58:29;28.33;;;12.27;;
49051;SDS011;34866;48.670;18.260;2023-01-13T08:00:56;25.52;;;10.80;;
49051;SDS011;34866;48.670;18.260;2023-01-13T08:03:22;31.50;;;11.23;;
49051;SDS011;34866;48.670;18.260;2023-01-13T08:05:48;31.83;;;12.63;;
49051;SDS011;34866;48.670;18.260;2023-01-13T08:08:14;26.63;;;12.38;;
49051;SDS011;34866;48.670;18.260;2023-01-13T08:10:40;28.85;;;13.60;;
49051;SDS011;34866;48.670;18.260;2023-01-13T08:13:09;30.65;;;13.27;;
49051;SDS011;34866;48.670;18.260;2023-01-13T08:15:46;23.48;;;11.38;;
49051;SDS011;34866;48.670;18.260;2023-01-13T08:18:16;36.38;;;16.45;;
49051;SDS011;34866;48.670;18.260;2023-01-13T08:20:45;55.60;;;24.50;;
49051;SDS011;34866;48.670;18.260;2023-01-13T08:23:11;53.10;;;24.67;;
49051;SDS011;34866;48.670;18.260;2023-01-13T08:25:36;41.22;;;19.45;;
49051;SDS011;34866;48.670;18.260;2023-01-13T08:28:02;37.35;;;17.00;;
49051;SDS011;34866;48.670;18.260;2023-01-13T08:30:28;36.53;;;15.65;;
49051;SDS011;34866;48.670;18.260;2023-01-13T08:32:54;31.92;;;14.15;;
49051;SDS011;34866;48.670;18.260;2023-01-13T08:35:20;27.40;;;16.10;;
49051;SDS011;34866;48.670;18.260;2023-01-13T08:37:46;33.58;;;15.35;;
49051;SDS011;34866;48.670;18.260;2023-01-13T08:40:13;27.98;;;14.75;;
49051;SDS011;34866;48.670;18.260;2023-01-13T08:42:40;31.17;;;15.52;;
49051;SDS011;34866;48.670;18.260;2023-01-13T08:45:06;37.63;;;16.67;;
49051;SDS011;34866;48.670;18.260;2023-01-13T08:47:33;30.05;;;13.18;;
49051;SDS011;34866;48.670;18.260;2023-01-13T08:49:59;39.45;;;16.80;;
49051;SDS011;34866;48.670;18.260;2023-01-13T08:52:24;34.50;;;16.98;;
49051;SDS011;34866;48.670;18.260;2023-01-13T08:54:50;34.50;;;17.02;;
49051;SDS011;34866;48.670;18.260;2023-01-13T08:57:16;39.88;;;16.58;;
49051;SDS011;34866;48.670;18.260;2023-01-13T08:59:44;34.78;;;15.60;;
49051;SDS011;34866;48.670;18.260;2023-01-13T09:02:14;35.53;;;14.82;;
49051;SDS011;34866;48.670;18.260;2023-01-13T09:04:43;31.60;;;15.18;;
49051;SDS011;34866;48.670;18.260;2023-01-13T09:07:09;35.30;;;15.75;;
49051;SDS011;34866;48.670;18.260;2023-01-13T09:09:35;38.30;;;15.00;;
49051;SDS011;34866;48.670;18.260;2023-01-13T09:12:01;30.25;;;14.88;;
49051;SDS011;34866;48.670;18.260;2023-01-13T09:14:45;34.00;;;14.95;;
49051;SDS011;34866;48.670;18.260;2023-01-13T09:17:11;25.77;;;14.45;;
49051;SDS011;34866;48.670;18.260;2023-01-13T09:19:37;29.67;;;13.70;;
49051;SDS011;34866;48.670;18.260;2023-01-13T09:22:02;35.33;;;15.20;;
49051;SDS011;34866;48.670;18.260;2023-01-13T09:24:28;31.60;;;13.98;;
49051;SDS011;34866;48.670;18.260;2023-01-13T09:26:54;26.75;;;12.95;;
49051;SDS011;34866;48.670;18.260;2023-01-13T09:29:20;28.35;;;12.82;;
49051;SDS011;34866;48.670;18.260;2023-01-13T09:31:45;27.65;;;12.48;;
49051;SDS011;34866;48.670;18.260;2023-01-13T09:34:15;26.58;;;12.18;;
49051;SDS011;34866;48.670;18.260;2023-01-13T09:37:02;20.95;;;10.80;;
49051;SDS011;34866;48.670;18.260;2023-01-13T09:39:29;25.67;;;11.23;;
49051;SDS011;34866;48.670;18.260;2023-01-13T09:41:56;26.00;;;10.80;;
49051;SDS011;34866;48.670;18.260;2023-01-13T09:44:55;27.10;;;10.18;;
49051;SDS011;34866;48.670;18.260;2023-01-13T09:52:45;17.33;;;9.45;;
49051;SDS011;34866;48.670;18.260;2023-01-13T09:55:16;22.05;;;9.23;;
49051;SDS011;34866;48.670;18.260;2023-01-13T10:05:37;20.92;;;9.65;;
49051;SDS011;34866;48.670;18.260;2023-01-13T10:08:28;19.10;;;9.00;;
49051;SDS011;34866;48.670;18.260;2023-01-13T10:11:01;17.15;;;8.50;;
49051;SDS011;34866;48.670;18.260;2023-01-13T10:13:50;23.00;;;8.63;;
49051;SDS011;34866;48.670;18.260;2023-01-13T10:16:26;18.27;;;7.45;;
49051;SDS011;34866;48.670;18.260;2023-01-13T10:29:17;22.70;;;10.38;;
49051;SDS011;34866;48.670;18.260;2023-01-13T10:31:45;20.88;;;11.13;;
49051;SDS011;34866;48.670;18.260;2023-01-13T10:34:11;21.25;;;10.30;;
49051;SDS011;34866;48.670;18.260;2023-01-13T10:36:37;17.02;;;8.90;;
49051;SDS011;34866;48.670;18.260;2023-01-13T10:39:07;21.60;;;10.32;;
49051;SDS011;34866;48.670;18.260;2023-01-13T10:41:38;26.73;;;11.48;;
49051;SDS011;34866;48.670;18.260;2023-01-13T10:44:13;19.60;;;9.60;;
49051;SDS011;34866;48.670;18.260;2023-01-13T10:46:51;20.05;;;9.02;;
49051;SDS011;34866;48.670;18.260;2023-01-13T10:49:32;15.98;;;8.35;;
49051;SDS011;34866;48.670;18.260;2023-01-13T10:52:00;24.75;;;9.82;;
49051;SDS011;34866;48.670;18.260;2023-01-13T10:54:28;13.25;;;7.32;;
49051;SDS011;34866;48.670;18.260;2023-01-13T10:57:14;18.85;;;8.73;;
49051;SDS011;34866;48.670;18.260;2023-01-13T10:59:44;16.75;;;8.80;;
49051;SDS011;34866;48.670;18.260;2023-01-13T11:02:23;18.33;;;8.52;;
49051;SDS011;34866;48.670;18.260;2023-01-13T11:07:46;11.93;;;7.22;;
49051;SDS011;34866;48.670;18.260;2023-01-13T11:10:20;18.42;;;8.80;;
49051;SDS011;34866;48.670;18.260;2023-01-13T11:15:18;18.00;;;6.32;;
49051;SDS011;34866;48.670;18.260;2023-01-13T11:17:52;16.20;;;7.55;;
49051;SDS011;34866;48.670;18.260;2023-01-13T11:20:27;15.38;;;8.10;;
49051;SDS011;34866;48.670;18.260;2023-01-13T11:22:59;23.83;;;9.82;;
49051;SDS011;34866;48.670;18.260;2023-01-13T11:25:29;16.50;;;8.90;;
49051;SDS011;34866;48.670;18.260;2023-01-13T11:28:14;18.08;;;7.95;;
49051;SDS011;34866;48.670;18.260;2023-01-13T11:34:07;13.80;;;7.30;;
49051;SDS011;34866;48.670;18.260;2023-01-13T11:36:38;15.02;;;7.18;;
49051;SDS011;34866;48.670;18.260;2023-01-13T11:45:01;20.80;;;8.40;;
49051;SDS011;34866;48.670;18.260;2023-01-13T11:47:27;18.05;;;7.82;;
49051;SDS011;34866;48.670;18.260;2023-01-13T11:49:53;21.35;;;8.00;;
49051;SDS011;34866;48.670;18.260;2023-01-13T11:55:05;18.40;;;8.98;;
49051;SDS011;34866;48.670;18.260;2023-01-13T11:58:22;19.23;;;8.20;;
49051;SDS011;34866;48.670;18.260;2023-01-13T12:04:26;14.40;;;7.37;;
49051;SDS011;34866;48.670;18.260;2023-01-13T12:10:15;21.25;;;8.00;;
49051;SDS011;34866;48.670;18.260;2023-01-13T12:12:59;14.43;;;7.35;;
49051;SDS011;34866;48.670;18.260;2023-01-13T12:21:09;12.00;;;6.90;;
49051;SDS011;34866;48.670;18.260;2023-01-13T12:26:39;21.30;;;8.52;;
49051;SDS011;34866;48.670;18.260;2023-01-13T12:29:30;17.73;;;8.23;;
49051;SDS011;34866;48.670;18.260;2023-01-13T12:32:01;16.40;;;7.88;;
49051;SDS011;34866;48.670;18.260;2023-01-13T12:37:31;13.02;;;6.68;;
49051;SDS011;34866;48.670;18.260;2023-01-13T12:40:21;18.80;;;8.90;;
49051;SDS011;34866;48.670;18.260;2023-01-13T12:43:17;14.07;;;6.85;;
49051;SDS011;34866;48.670;18.260;2023-01-13T12:53:53;12.80;;;5.50;;
49051;SDS011;34866;48.670;18.260;2023-01-13T13:01:41;17.83;;;6.10;;
49051;SDS011;34866;48.670;18.260;2023-01-13T13:04:09;13.43;;;6.45;;
49051;SDS011;34866;48.670;18.260;2023-01-13T13:06:36;11.52;;;5.40;;
49051;SDS011;34866;48.670;18.260;2023-01-13T13:11:44;10.75;;;5.05;;
49051;SDS011;34866;48.670;18.260;2023-01-13T13:17:01;20.02;;;8.18;;
49051;SDS011;34866;48.670;18.260;2023-01-13T13:19:47;21.70;;;10.18;;
49051;SDS011;34866;48.670;18.260;2023-01-13T13:27:38;18.77;;;8.45;;
49051;SDS011;34866;48.670;18.260;2023-01-13T13:30:17;46.53;;;18.63;;
49051;SDS011;34866;48.670;18.260;2023-01-13T13:32:58;45.08;;;18.33;;
49051;SDS011;34866;48.670;18.260;2023-01-13T13:41:27;14.40;;;7.60;;
49051;SDS011;34866;48.670;18.260;2023-01-13T13:44:18;15.57;;;7.47;;
49051;SDS011;34866;48.670;18.260;2023-01-13T13:47:11;17.88;;;7.82;;
49051;SDS011;34866;48.670;18.260;2023-01-13T13:54:50;18.98;;;9.68;;
49051;SDS011;34866;48.670;18.260;2023-01-13T13:57:19;15.60;;;8.07;;
49051;SDS011;34866;48.670;18.260;2023-01-13T13:59:50;24.13;;;7.97;;
49051;SDS011;34866;48.670;18.260;2023-01-13T14:02:21;14.90;;;8.10;;
49051;SDS011;34866;48.670;18.260;2023-01-13T14:05:04;20.58;;;9.07;;
49051;SDS011;34866;48.670;18.260;2023-01-13T14:08:24;21.48;;;9.23;;
49051;SDS011;34866;48.670;18.260;2023-01-13T14:10:43;20.05;;;10.13;;
49051;SDS011;34866;48.670;18.260;2023-01-13T14:13:13;19.02;;;9.38;;
49051;SDS011;34866;48.670;18.260;2023-01-13T14:15:48;27.08;;;10.45;;
49051;SDS011;34866;48.670;18.260;2023-01-13T14:18:44;16.25;;;9.80;;
49051;SDS011;34866;48.670;18.260;2023-01-13T14:23:54;22.02;;;10.85;;
49051;SDS011;34866;48.670;18.260;2023-01-13T14:26:38;24.60;;;11.80;;
49051;SDS011;34866;48.670;18.260;2023-01-13T14:29:04;21.88;;;10.35;;
49051;SDS011;34866;48.670;18.260;2023-01-13T14:31:30;19.13;;;9.52;;
49051;SDS011;34866;48.670;18.260;2023-01-13T14:33:57;22.48;;;8.88;;
49051;SDS011;34866;48.670;18.260;2023-01-13T14:46:45;21.88;;;8.65;;
49051;SDS011;34866;48.670;18.260;2023-01-13T14:49:31;20.38;;;9.52;;
49051;SDS011;34866;48.670;18.260;2023-01-13T14:54:52;24.45;;;8.70;;
49051;SDS011;34866;48.670;18.260;2023-01-13T14:57:25;20.25;;;8.88;;
49051;SDS011;34866;48.670;18.260;2023-01-13T15:13:19;28.02;;;10.02;;
49051;SDS011;34866;48.670;18.260;2023-01-13T15:15:57;18.85;;;9.73;;
49051;SDS011;34866;48.670;18.260;2023-01-13T15:18:32;25.42;;;10.10;;
49051;SDS011;34866;48.670;18.260;2023-01-13T15:20:59;18.70;;;8.45;;
49051;SDS011;34866;48.670;18.260;2023-01-13T15:23:25;24.92;;;8.50;;
49051;SDS011;34866;48.670;18.260;2023-01-13T15:25:50;20.30;;;8.05;;
49051;SDS011;34866;48.670;18.260;2023-01-13T15:28:20;23.48;;;10.40;;
49051;SDS011;34866;48.670;18.260;2023-01-13T15:30:49;24.05;;;9.60;;
49051;SDS011;34866;48.670;18.260;2023-01-13T15:33:16;18.25;;;8.95;;
49051;SDS011;34866;48.670;18.260;2023-01-13T15:35:43;26.17;;;11.40;;
49051;SDS011;34866;48.670;18.260;2023-01-13T15:38:11;20.92;;;8.63;;
49051;SDS011;34866;48.670;18.260;2023-01-13T15:40:42;17.80;;;9.13;;
49051;SDS011;34866;48.670;18.260;2023-01-13T15:43:12;19.70;;;9.10;;
49051;SDS011;34866;48.670;18.260;2023-01-13T15:46:01;21.77;;;8.50;;
49051;SDS011;34866;48.670;18.260;2023-01-13T15:48:48;16.88;;;9.18;;
49051;SDS011;34866;48.670;18.260;2023-01-13T15:51:14;20.67;;;8.90;;
49051;SDS011;34866;48.670;18.260;2023-01-13T15:53:40;19.60;;;9.32;;
49051;SDS011;34866;48.670;18.260;2023-01-13T15:56:19;22.02;;;9.35;;
49051;SDS011;34866;48.670;18.260;2023-01-13T15:58:48;19.42;;;9.32;;
49051;SDS011;34866;48.670;18.260;2023-01-13T16:01:16;19.70;;;9.48;;
49051;SDS011;34866;48.670;18.260;2023-01-13T16:03:42;19.50;;;9.60;;
49051;SDS011;34866;48.670;18.260;2023-01-13T16:06:17;22.45;;;10.63;;
49051;SDS011;34866;48.670;18.260;2023-01-13T16:08:44;37.83;;;15.85;;
49051;SDS011;34866;48.670;18.260;2023-01-13T16:11:23;49.92;;;17.77;;
49051;SDS011;34866;48.670;18.260;2023-01-13T16:13:50;58.97;;;20.27;;
49051;SDS011;34866;48.670;18.260;2023-01-13T16:16:26;54.63;;;19.10;;
49051;SDS011;34866;48.670;18.260;2023-01-13T16:18:52;36.33;;;14.40;;
49051;SDS011;34866;48.670;18.260;2023-01-13T16:21:19;46.22;;;22.48;;
49051;SDS011;34866;48.670;18.260;2023-01-13T16:23:46;41.88;;;19.60;;
49051;SDS011;34866;48.670;18.260;2023-01-13T16:26:15;29.58;;;15.43;;
49051;SDS011;34866;48.670;18.260;2023-01-13T16:28:46;33.47;;;16.13;;
49051;SDS011;34866;48.670;18.260;2023-01-13T16:31:23;42.25;;;19.65;;
49051;SDS011;34866;48.670;18.260;2023-01-13T16:33:53;35.13;;;16.48;;
49051;SDS011;34866;48.670;18.260;2023-01-13T16:36:19;37.03;;;16.35;;
49051;SDS011;34866;48.670;18.260;2023-01-13T16:38:46;31.50;;;14.52;;
49051;SDS011;34866;48.670;18.260;2023-01-13T16:41:13;27.02;;;14.90;;
49051;SDS011;34866;48.670;18.260;2023-01-13T16:43:40;26.02;;;15.20;;
49051;SDS011;34866;48.670;18.260;2023-01-13T16:48:43;34.63;;;14.85;;
49051;SDS011;34866;48.670;18.260;2023-01-13T16:51:10;26.60;;;11.30;;
49051;SDS011;34866;48.670;18.260;2023-01-13T16:53:35;24.52;;;10.98;;
49051;SDS011;34866;48.670;18.260;2023-01-13T16:56:01;18.45;;;8.05;;
49051;SDS011;34866;48.670;18.260;2023-01-13T16:58:27;15.45;;;8.55;;
49051;SDS011;34866;48.670;18.260;2023-01-13T17:00:52;12.90;;;6.85;;
49051;SDS011;34866;48.670;18.260;2023-01-13T17:03:18;22.42;;;7.82;;
49051;SDS011;34866;48.670;18.260;2023-01-13T17:05:44;41.58;;;12.85;;
49051;SDS011;34866;48.670;18.260;2023-01-13T17:08:13;21.83;;;10.15;;
49051;SDS011;34866;48.670;18.260;2023-01-13T17:10:44;31.52;;;12.43;;
49051;SDS011;34866;48.670;18.260;2023-01-13T17:13:10;28.13;;;12.43;;
49051;SDS011;34866;48.670;18.260;2023-01-13T17:15:36;18.77;;;9.88;;
49051;SDS011;34866;48.670;18.260;2023-01-13T17:18:02;20.60;;;8.80;;
49051;SDS011;34866;48.670;18.260;2023-01-13T17:20:27;18.65;;;10.18;;
49051;SDS011;34866;48.670;18.260;2023-01-13T17:22:53;17.17;;;7.50;;
49051;SDS011;34866;48.670;18.260;2023-01-13T17:25:19;25.13;;;8.27;;
49051;SDS011;34866;48.670;18.260;2023-01-13T17:27:45;14.38;;;7.70;;
49051;SDS011;34866;48.670;18.260;2023-01-13T17:30:11;16.42;;;7.68;;
49051;SDS011;34866;48.670;18.260;2023-01-13T17:32:39;22.17;;;10.73;;